createdAt,value
2022-10-09T00:01:25.929Z,100920.84
2022-10-09T00:03:56.076Z,100924.34
2022-10-09T00:06:30.282Z,100928.72
2022-10-09T00:08:59.593Z,100923.63
2022-10-09T00:11:29.100Z,100932.31
2022-10-09T00:13:57.792Z,100943.25
2022-10-09T00:16:26.918Z,100944.72
2022-10-09T00:18:55.277Z,100945.34
2022-10-09T00:21:28.540Z,100946.63
2022-10-09T00:23:58.958Z,100962.56
2022-10-09T00:26:27.576Z,100949.41
2022-10-09T00:28:55.874Z,100947.88
2022-10-09T00:31:24.237Z,100955.59
2022-10-09T00:33:52.189Z,100951.16
2022-10-09T00:36:22.462Z,100953.31
2022-10-09T00:38:50.882Z,100951.59
2022-10-09T00:41:30.868Z,100941.47
2022-10-09T00:44:03.921Z,100939.81
2022-10-09T00:46:46.774Z,100938.03
2022-10-09T00:49:29.711Z,100937.81
2022-10-09T00:52:02.161Z,100937.34
2022-10-09T00:54:32.376Z,100935.22
2022-10-09T00:57:00.544Z,100945.84
2022-10-09T00:59:28.875Z,100945.97
2022-10-09T01:01:56.643Z,100953.53
2022-10-09T01:04:24.397Z,100947.91
2022-10-09T01:07:14.941Z,100959.47
2022-10-09T01:09:51.391Z,100956.22
2022-10-09T01:12:55.229Z,100965.16
2022-10-09T01:15:27.350Z,100968.13
2022-10-09T01:18:29.389Z,100969.06
2022-10-09T01:21:13.329Z,100968.47
2022-10-09T01:23:41.034Z,100967.75
2022-10-09T01:26:33.449Z,100973.81
2022-10-09T01:29:07.804Z,100985.19
2022-10-09T01:31:40.622Z,100982.88
2022-10-09T01:34:10.605Z,100988.50
2022-10-09T01:36:39.775Z,100987.63
2022-10-09T01:39:11.402Z,100989.50
2022-10-09T01:41:43.855Z,100991.06
2022-10-09T01:44:27.748Z,100990.44
2022-10-09T01:46:56.414Z,100996.59
2022-10-09T01:49:53.221Z,100994.38
2022-10-09T01:52:21.015Z,100990.97
2022-10-09T01:55:10.259Z,100996.41
2022-10-09T01:57:43.957Z,101001.38
2022-10-09T02:00:12.806Z,101007.91
2022-10-09T02:02:42.854Z,101001.38
2022-10-09T02:05:15.449Z,101006.19
2022-10-09T02:07:43.416Z,101010.72
2022-10-09T02:10:11.815Z,101013.19
2022-10-09T02:12:49.693Z,101023.88
2022-10-09T02:15:17.770Z,101018.00
2022-10-09T02:17:49.176Z,101019.56
2022-10-09T02:20:25.487Z,101023.50
2022-10-09T02:22:54.604Z,101031.41
2022-10-09T02:25:22.611Z,101027.25
2022-10-09T02:27:50.917Z,101031.78
2022-10-09T02:30:20.768Z,101024.56
2022-10-09T02:32:53.624Z,101033.16
2022-10-09T02:35:21.952Z,101039.28
2022-10-09T02:37:49.710Z,101039.34
2022-10-09T02:40:17.450Z,101037.19
2022-10-09T02:42:49.764Z,101048.06
2022-10-09T02:45:17.760Z,101052.38
2022-10-09T02:47:45.438Z,101056.72
2022-10-09T02:50:13.197Z,101060.06
2022-10-09T02:52:40.848Z,101063.09
2022-10-09T02:55:08.993Z,101059.16
2022-10-09T02:57:36.639Z,101068.16
2022-10-09T03:00:08.224Z,101063.81
2022-10-09T03:02:36.052Z,101068.22
2022-10-09T03:05:04.010Z,101082.75
2022-10-09T03:07:31.915Z,101083.81
2022-10-09T03:09:59.505Z,101080.00
2022-10-09T03:12:27.404Z,101076.50
2022-10-09T03:14:55.234Z,101084.69
2022-10-09T03:17:22.898Z,101088.69
2022-10-09T03:19:50.529Z,101091.00
2022-10-09T03:22:18.399Z,101089.16
2022-10-09T03:24:46.197Z,101091.91
2022-10-09T03:27:13.902Z,101096.41
2022-10-09T03:29:41.501Z,101094.91
2022-10-09T03:32:10.925Z,101099.91
2022-10-09T03:34:38.904Z,101101.75
2022-10-09T03:37:06.845Z,101100.25
2022-10-09T03:39:34.514Z,101100.09
2022-10-09T03:42:02.183Z,101109.47
2022-10-09T03:44:29.944Z,101106.19
2022-10-09T03:46:59.959Z,101105.16
2022-10-09T03:49:27.898Z,101109.69
2022-10-09T03:51:55.738Z,101115.22
2022-10-09T03:54:23.499Z,101115.03
2022-10-09T03:56:51.312Z,101125.06
2022-10-09T03:59:19.165Z,101122.06
2022-10-09T04:01:46.933Z,101127.38
2022-10-09T04:04:14.753Z,101136.00
2022-10-09T04:06:42.861Z,101134.56
2022-10-09T04:09:10.673Z,101132.19
2022-10-09T04:11:38.456Z,101136.06
2022-10-09T04:14:06.796Z,101144.19
2022-10-09T04:16:34.663Z,101145.50
2022-10-09T04:19:02.617Z,101139.53
2022-10-09T04:21:30.992Z,101142.00
2022-10-09T04:23:58.669Z,101143.31
2022-10-09T04:26:26.351Z,101137.81
2022-10-09T04:28:54.191Z,101147.47
2022-10-09T04:31:21.981Z,101147.94
2022-10-09T04:33:49.643Z,101152.72
2022-10-09T04:36:17.413Z,101152.41
2022-10-09T04:38:44.982Z,101160.94
2022-10-09T04:41:13.587Z,101158.25
2022-10-09T04:43:41.275Z,101159.75
2022-10-09T04:46:12.275Z,101160.91
2022-10-09T04:48:42.315Z,101161.63
2022-10-09T04:51:10.874Z,101176.78
2022-10-09T04:53:39.475Z,101183.47
2022-10-09T04:56:15.852Z,101186.97
2022-10-09T04:58:44.421Z,101185.97
2022-10-09T05:01:21.914Z,101188.47
2022-10-09T05:03:50.952Z,101190.81
2022-10-09T05:06:20.475Z,101191.09
2022-10-09T05:08:48.918Z,101192.59
2022-10-09T05:11:20.348Z,101196.13
2022-10-09T05:13:50.395Z,101199.94
2022-10-09T05:16:21.626Z,101203.25
2022-10-09T05:18:50.988Z,101210.97
2022-10-09T05:21:19.160Z,101224.78
2022-10-09T05:23:47.804Z,101225.75
2022-10-09T05:26:18.624Z,101226.75
2022-10-09T05:28:47.131Z,101229.91
2022-10-09T05:31:26.480Z,101235.59
2022-10-09T05:33:55.714Z,101232.78
2022-10-09T05:36:23.593Z,101246.06
2022-10-09T05:38:51.366Z,101246.19
2022-10-09T05:41:20.206Z,101252.53
2022-10-09T05:43:49.964Z,101250.69
2022-10-09T05:46:26.196Z,101249.38
2022-10-09T05:48:58.947Z,101249.72
2022-10-09T05:51:32.704Z,101258.41
2022-10-09T05:54:04.846Z,101270.59
2022-10-09T05:56:36.136Z,101271.91
2022-10-09T05:59:05.068Z,101272.09
2022-10-09T06:01:41.700Z,101288.91
2022-10-09T06:04:18.241Z,101282.75
2022-10-09T06:06:47.851Z,101284.75
2022-10-09T06:09:25.669Z,101289.59
2022-10-09T06:11:55.752Z,101298.06
2022-10-09T06:14:24.609Z,101292.94
2022-10-09T06:16:53.606Z,101304.59
2022-10-09T06:19:21.762Z,101307.56
2022-10-09T06:21:49.670Z,101310.41
2022-10-09T06:24:27.364Z,101313.69
2022-10-09T06:26:57.930Z,101312.72
2022-10-09T06:29:26.194Z,101314.06
2022-10-09T06:31:54.628Z,101315.69
2022-10-09T06:34:22.720Z,101323.16
2022-10-09T06:36:50.459Z,101320.00
2022-10-09T06:39:18.191Z,101331.22
2022-10-09T06:41:45.964Z,101335.75
2022-10-09T06:44:43.576Z,101346.22
2022-10-09T06:47:11.508Z,101353.06
2022-10-09T06:49:39.163Z,101353.16
2022-10-09T06:52:06.826Z,101361.50
2022-10-09T06:54:34.667Z,101366.97
2022-10-09T06:57:02.365Z,101363.28
2022-10-09T06:59:30.205Z,101373.59
2022-10-09T07:01:58.081Z,101367.22
2022-10-09T07:04:26.095Z,101378.09
2022-10-09T07:06:54.018Z,101383.84
2022-10-09T07:09:21.665Z,101379.19
2022-10-09T07:11:49.680Z,101378.97
2022-10-09T07:14:17.758Z,101388.47
2022-10-09T07:16:48.504Z,101389.34
2022-10-09T07:19:18.143Z,101396.78
2022-10-09T07:21:49.007Z,101397.97
2022-10-09T07:24:17.927Z,101401.84
2022-10-09T07:26:46.529Z,101399.25
2022-10-09T07:29:15.739Z,101399.59
2022-10-09T07:31:44.162Z,101406.03
2022-10-09T07:34:12.080Z,101406.47
2022-10-09T07:36:39.761Z,101410.78
2022-10-09T07:39:07.725Z,101415.31
2022-10-09T07:41:35.575Z,101416.50
2022-10-09T07:44:04.005Z,101426.69
2022-10-09T07:46:34.012Z,101422.66
2022-10-09T07:49:03.221Z,101426.56
2022-10-09T07:51:31.894Z,101430.19
2022-10-09T07:54:02.443Z,101427.44
2022-10-09T07:56:36.085Z,101435.69
2022-10-09T07:59:16.102Z,101437.22
2022-10-09T08:01:45.503Z,101440.56
2022-10-09T08:04:13.416Z,101448.19
2022-10-09T08:06:41.158Z,101447.28
2022-10-09T08:09:09.373Z,101448.22
2022-10-09T08:11:41.220Z,101452.59
2022-10-09T08:14:19.023Z,101452.75
2022-10-09T08:16:48.863Z,101464.41
2022-10-09T08:19:17.240Z,101469.31
2022-10-09T08:21:45.575Z,101468.06
2022-10-09T08:24:13.344Z,101477.09
2022-10-09T08:26:41.163Z,101472.34
2022-10-09T08:29:11.072Z,101475.03
2022-10-09T08:31:39.052Z,101476.78
2022-10-09T08:34:06.842Z,101477.97
2022-10-09T08:36:34.746Z,101480.19
2022-10-09T08:39:02.606Z,101484.66
2022-10-09T08:41:34.111Z,101485.19
2022-10-09T08:44:32.435Z,101486.44
2022-10-09T08:47:17.696Z,101490.16
2022-10-09T08:50:11.499Z,101497.56
2022-10-09T08:52:53.168Z,101500.97
2022-10-09T08:55:27.126Z,101515.41
2022-10-09T08:58:04.516Z,101519.50
2022-10-09T09:00:42.866Z,101504.22
2022-10-09T09:03:44.888Z,101517.56
2022-10-09T09:06:21.535Z,101509.59
2022-10-09T09:09:07.874Z,101506.59
2022-10-09T09:11:39.082Z,101510.88
2022-10-09T09:14:42.403Z,101506.06
2022-10-09T09:17:28.938Z,101507.16
2022-10-09T09:20:25.762Z,101505.34
2022-10-09T09:22:53.722Z,101507.88
2022-10-09T09:25:28.608Z,101512.63
2022-10-09T09:28:02.531Z,101509.59
2022-10-09T09:30:37.546Z,101515.97
2022-10-09T09:33:18.916Z,101518.13
2022-10-09T09:35:55.808Z,101517.38
2022-10-09T09:38:23.776Z,101522.47
2022-10-09T09:40:51.576Z,101525.44
2022-10-09T09:43:25.011Z,101524.84
2022-10-09T09:45:54.823Z,101525.34
2022-10-09T09:48:31.743Z,101527.44
2022-10-09T09:51:23.563Z,101532.25
2022-10-09T09:53:55.225Z,101537.13
2022-10-09T09:56:59.824Z,101532.78
2022-10-09T09:59:41.066Z,101538.13
2022-10-09T10:02:21.244Z,101545.31
2022-10-09T10:05:03.558Z,101541.34
2022-10-09T10:07:40.453Z,101557.75
2022-10-09T10:10:31.219Z,101554.84
2022-10-09T10:13:06.903Z,101547.41
2022-10-09T10:15:59.274Z,101542.41
2022-10-09T10:18:41.940Z,101555.31
2022-10-09T10:21:22.606Z,101558.84
2022-10-09T10:24:08.727Z,101558.59
2022-10-09T10:26:54.335Z,101563.41
2022-10-09T10:29:31.836Z,101564.16
2022-10-09T10:32:11.909Z,101569.69
2022-10-09T10:34:50.850Z,101565.28
2022-10-09T10:37:46.774Z,101563.50
2022-10-09T10:41:04.644Z,101563.78
2022-10-09T10:43:50.682Z,101565.44
2022-10-09T10:46:27.771Z,101570.28
2022-10-09T10:49:03.135Z,101572.19
2022-10-09T10:51:44.876Z,101571.88
2022-10-09T10:54:45.918Z,101579.56
2022-10-09T10:57:52.266Z,101583.28
2022-10-09T11:00:27.469Z,101582.47
2022-10-09T11:03:17.346Z,101592.22
2022-10-09T11:06:19.753Z,101582.25
2022-10-09T11:09:17.273Z,101594.00
2022-10-09T11:12:19.645Z,101593.72
2022-10-09T11:15:40.348Z,101593.94
2022-10-09T11:18:59.100Z,101593.72
2022-10-09T11:21:53.051Z,101583.38
2022-10-09T11:28:17.602Z,101576.13
2022-10-09T11:35:54.109Z,101586.28
2022-10-09T11:39:00.854Z,101584.59
2022-10-09T11:41:38.893Z,101590.16
2022-10-09T11:44:55.934Z,101587.66
2022-10-09T11:47:48.660Z,101581.16
2022-10-09T11:51:14.555Z,101584.06
2022-10-09T11:53:49.892Z,101582.47
2022-10-09T11:56:32.348Z,101575.72
2022-10-09T11:59:14.657Z,101580.16
2022-10-09T12:02:05.262Z,101586.91
2022-10-09T12:04:54.482Z,101579.72
2022-10-09T12:10:41.527Z,101578.47
2022-10-09T12:13:50.567Z,101586.38
2022-10-09T12:16:50.052Z,101592.00
2022-10-09T12:19:42.395Z,101590.34
2022-10-09T12:22:20.268Z,101591.00
2022-10-09T12:24:54.062Z,101582.19
2022-10-09T12:27:47.067Z,101576.19
2022-10-09T12:30:22.273Z,101581.75
2022-10-09T12:33:15.493Z,101577.66
2022-10-09T12:35:49.800Z,101574.41
2022-10-09T12:38:37.878Z,101576.84
2022-10-09T12:41:27.952Z,101565.63
2022-10-09T12:44:04.099Z,101573.75
2022-10-09T12:46:36.285Z,101571.78
2022-10-09T12:49:14.438Z,101579.72
2022-10-09T12:51:42.473Z,101568.66
2022-10-09T12:54:10.717Z,101579.78
2022-10-09T12:56:39.416Z,101583.56
2022-10-09T12:59:07.648Z,101580.72
2022-10-09T13:01:36.059Z,101588.97
2022-10-09T13:04:06.483Z,101583.22
2022-10-09T13:06:45.371Z,101579.44
2022-10-09T13:09:26.535Z,101583.75
2022-10-09T13:12:01.100Z,101580.53
2022-10-09T13:14:36.843Z,101589.34
2022-10-09T13:17:07.715Z,101582.09
2022-10-09T13:19:35.957Z,101587.66
2022-10-09T13:22:16.529Z,101584.13
2022-10-09T13:24:44.360Z,101578.47
2022-10-09T13:27:14.966Z,101578.84
2022-10-09T13:29:43.667Z,101578.97
2022-10-09T13:32:13.238Z,101585.69
2022-10-09T13:34:58.734Z,101580.06
2022-10-09T13:37:30.986Z,101582.28
2022-10-09T13:40:00.178Z,101583.00
2022-10-09T13:42:32.695Z,101580.31
2022-10-09T13:45:00.447Z,101573.47
2022-10-09T13:47:28.093Z,101566.28
2022-10-09T13:49:55.757Z,101572.72
2022-10-09T13:52:25.115Z,101577.38
2022-10-09T13:54:53.371Z,101576.16
2022-10-09T13:57:21.066Z,101572.94
2022-10-09T13:59:49.046Z,101571.31
2022-10-09T14:02:16.885Z,101571.47
2022-10-09T14:04:56.776Z,101583.13
2022-10-09T14:07:24.645Z,101563.06
2022-10-09T14:09:52.433Z,101569.53
2022-10-09T14:12:28.193Z,101574.31
2022-10-09T14:15:50.904Z,101571.63
2022-10-09T14:19:01.136Z,101575.41
2022-10-09T14:21:34.863Z,101570.56
2022-10-09T14:24:05.537Z,101575.63
2022-10-09T14:26:34.325Z,101574.16
2022-10-09T14:29:30.178Z,101565.66
2022-10-09T14:32:01.940Z,101572.94
2022-10-09T14:35:06.952Z,101572.66
2022-10-09T14:37:41.560Z,101574.56
2022-10-09T14:40:11.448Z,101566.91
2022-10-09T14:42:39.882Z,101569.47
2022-10-09T14:45:11.312Z,101565.22
2022-10-09T14:47:38.955Z,101567.50
2022-10-09T14:50:09.218Z,101569.34
2022-10-09T14:53:02.536Z,101567.28
2022-10-09T14:55:43.011Z,101566.22
2022-10-09T14:58:35.033Z,101576.94
2022-10-09T15:01:11.795Z,101572.75
2022-10-09T15:03:39.776Z,101576.31
2022-10-09T15:06:09.933Z,101583.06
2022-10-09T15:09:20.746Z,101578.59
2022-10-09T15:12:04.814Z,101577.75
2022-10-09T15:14:53.960Z,101584.94
2022-10-09T15:17:27.806Z,101588.28
2022-10-09T15:20:10.119Z,101578.28
2022-10-09T15:22:55.478Z,101587.91
2022-10-09T15:25:36.214Z,101588.25
2022-10-09T15:28:10.891Z,101586.41
2022-10-09T15:30:53.520Z,101580.72
2022-10-09T15:33:28.301Z,101584.75
2022-10-09T15:35:58.499Z,101585.41
2022-10-09T15:38:34.875Z,101582.09
2022-10-09T15:41:06.476Z,101582.94
2022-10-09T15:43:38.976Z,101590.31
2022-10-09T15:46:10.153Z,101590.84
2022-10-09T15:49:00.629Z,101595.38
2022-10-09T15:51:38.071Z,101595.75
2022-10-09T15:54:06.895Z,101600.47
2022-10-09T15:56:39.516Z,101597.16
2022-10-09T15:59:14.690Z,101589.50
2022-10-09T16:01:42.971Z,101597.88
2022-10-09T16:04:16.190Z,101596.19
2022-10-09T16:06:55.942Z,101598.03
2022-10-09T16:09:39.852Z,101603.06
2022-10-09T16:12:19.244Z,101598.88
2022-10-09T16:15:00.165Z,101606.09
2022-10-09T16:17:28.302Z,101614.44
2022-10-09T16:19:55.896Z,101614.59
2022-10-09T16:22:23.608Z,101617.59
2022-10-09T16:24:51.279Z,101620.81
2022-10-09T16:27:21.915Z,101620.66
2022-10-09T16:29:49.597Z,101622.81
2022-10-09T16:32:17.669Z,101626.50
2022-10-09T16:34:51.322Z,101622.50
2022-10-09T16:37:37.913Z,101629.84
2022-10-09T16:40:06.259Z,101624.34
2022-10-09T16:42:34.016Z,101620.16
2022-10-09T16:45:02.213Z,101621.47
2022-10-09T16:47:30.274Z,101630.16
2022-10-09T16:49:57.954Z,101635.00
2022-10-09T16:52:25.820Z,101632.16
2022-10-09T16:54:57.075Z,101631.00
2022-10-09T16:57:28.878Z,101628.81
2022-10-09T16:59:56.617Z,101628.63
2022-10-09T17:02:24.469Z,101627.66
2022-10-09T17:04:55.343Z,101632.66
2022-10-09T17:07:49.764Z,101631.00
2022-10-09T17:10:21.490Z,101632.16
2022-10-09T17:12:55.135Z,101638.31
2022-10-09T17:15:29.370Z,101635.47
2022-10-09T17:17:57.187Z,101640.31
2022-10-09T17:20:25.068Z,101642.28
2022-10-09T17:22:54.691Z,101644.81
2022-10-09T17:29:21.046Z,101646.94
2022-10-09T17:31:50.578Z,101644.94
2022-10-09T17:34:18.955Z,101649.44
2022-10-09T17:36:46.927Z,101655.75
2022-10-09T17:39:17.698Z,101661.97
2022-10-09T17:42:25.647Z,101653.09
2022-10-09T17:44:57.586Z,101659.69
2022-10-09T17:47:29.857Z,101657.84
2022-10-09T17:50:03.546Z,101659.88
2022-10-09T17:52:31.677Z,101669.84
2022-10-09T17:54:59.327Z,101669.84
2022-10-09T17:57:27.193Z,101665.34
2022-10-09T17:59:57.794Z,101670.69
2022-10-09T18:02:32.278Z,101669.84
2022-10-09T18:09:21.878Z,101674.00
2022-10-09T18:11:59.068Z,101670.81
2022-10-09T18:14:27.102Z,101675.00
2022-10-09T18:16:55.533Z,101666.31
2022-10-09T18:19:23.657Z,101670.81
2022-10-09T18:21:52.305Z,101665.50
2022-10-09T18:24:20.464Z,101666.31
2022-10-09T18:26:48.215Z,101679.66
2022-10-09T18:29:27.784Z,101677.69
2022-10-09T18:31:56.013Z,101673.63
2022-10-09T18:34:50.644Z,101672.66
2022-10-09T18:37:21.205Z,101678.97
2022-10-09T18:40:02.182Z,101682.47
2022-10-09T18:42:29.952Z,101677.25
2022-10-09T18:45:22.243Z,101682.13
2022-10-09T18:47:51.919Z,101684.28
2022-10-09T18:50:23.648Z,101687.78
2022-10-09T18:52:51.693Z,101679.28
2022-10-09T18:55:20.907Z,101684.94
2022-10-09T18:57:48.729Z,101692.25
2022-10-09T19:00:17.046Z,101697.41
2022-10-09T19:02:44.806Z,101699.09
2022-10-09T19:05:12.632Z,101702.59
2022-10-09T19:07:41.157Z,101701.91
2022-10-09T19:10:09.432Z,101702.72
2022-10-09T19:12:37.632Z,101707.88
2022-10-09T19:15:11.066Z,101710.34
2022-10-09T19:17:40.092Z,101711.47
2022-10-09T19:20:08.250Z,101705.16
2022-10-09T19:22:36.319Z,101713.63
2022-10-09T19:25:05.761Z,101711.78
2022-10-09T19:27:33.918Z,101707.63
2022-10-09T19:30:01.999Z,101704.94
2022-10-09T19:32:31.254Z,101706.91
2022-10-09T19:34:59.068Z,101712.75
2022-10-09T19:37:29.691Z,101708.09
2022-10-09T19:39:58.052Z,101704.75
2022-10-09T19:42:26.147Z,101714.88
2022-10-09T19:44:53.929Z,101712.84
2022-10-09T19:47:23.910Z,101710.50
2022-10-09T19:49:51.914Z,101719.47
2022-10-09T19:52:20.295Z,101713.63
2022-10-09T19:54:48.155Z,101721.91
2022-10-09T19:57:15.922Z,101708.06
2022-10-09T19:59:43.933Z,101708.53
2022-10-09T20:02:11.839Z,101717.13
2022-10-09T20:04:39.957Z,101721.31
2022-10-09T20:07:12.323Z,101728.16
2022-10-09T20:09:40.809Z,101725.34
2022-10-09T20:12:09.905Z,101722.69
2022-10-09T20:14:37.773Z,101722.84
2022-10-09T20:17:05.419Z,101722.84
2022-10-09T20:19:33.294Z,101725.34
2022-10-09T20:22:01.087Z,101729.31
2022-10-09T20:24:28.991Z,101726.97
2022-10-09T20:26:56.726Z,101727.09
2022-10-09T20:29:27.215Z,101726.44
2022-10-09T20:31:55.726Z,101724.75
2022-10-09T20:34:27.029Z,101729.22
2022-10-09T20:36:55.216Z,101731.25
2022-10-09T20:39:49.321Z,101728.56
2022-10-09T20:42:17.192Z,101731.38
2022-10-09T20:44:45.067Z,101733.03
2022-10-09T20:47:12.892Z,101728.00
2022-10-09T20:49:47.317Z,101732.38
2022-10-09T20:52:15.246Z,101729.84
2022-10-09T20:54:42.998Z,101729.31
2022-10-09T20:57:10.939Z,101731.47
2022-10-09T20:59:38.600Z,101736.78
2022-10-09T21:02:06.370Z,101729.75
2022-10-09T21:04:34.351Z,101730.47
2022-10-09T21:07:02.050Z,101733.94
2022-10-09T21:09:33.082Z,101723.31
2022-10-09T21:12:02.559Z,101731.91
2022-10-09T21:14:30.289Z,101734.56
2022-10-09T21:16:58.082Z,101739.91
2022-10-09T21:19:28.344Z,101728.72
2022-10-09T21:22:02.254Z,101732.38
2022-10-09T21:24:30.077Z,101725.53
2022-10-09T21:26:57.901Z,101723.00
2022-10-09T21:29:28.513Z,101724.13
2022-10-09T21:31:56.210Z,101724.56
2022-10-09T21:34:23.941Z,101722.34
2022-10-09T21:37:19.904Z,101726.00
2022-10-09T21:39:42.152Z,101726.44
2022-10-09T21:42:09.781Z,101724.09
2022-10-09T21:44:39.908Z,101721.88
2022-10-09T21:47:15.150Z,101725.69
2022-10-09T21:49:43.032Z,101717.31
2022-10-09T21:52:10.960Z,101726.03
2022-10-09T21:54:41.530Z,101724.66
2022-10-09T21:57:09.498Z,101722.28
2022-10-09T21:59:37.272Z,101728.59
2022-10-09T22:02:08.082Z,101726.38
2022-10-09T22:04:36.629Z,101727.13
2022-10-09T22:07:08.268Z,101723.78
2022-10-09T22:09:38.997Z,101720.72
2022-10-09T22:12:06.705Z,101720.75
2022-10-09T22:14:34.333Z,101723.13
2022-10-09T22:17:02.160Z,101727.44
2022-10-09T22:19:31.637Z,101726.31
2022-10-09T22:21:59.312Z,101734.59
2022-10-09T22:24:29.176Z,101734.06
2022-10-09T22:26:57.665Z,101729.72
2022-10-09T22:29:26.813Z,101735.06
2022-10-09T22:31:54.486Z,101735.72
2022-10-09T22:34:22.202Z,101736.41
2022-10-09T22:36:49.941Z,101737.25
2022-10-09T22:39:17.727Z,101732.38
2022-10-09T22:41:48.562Z,101741.09
2022-10-09T22:44:16.432Z,101747.69
2022-10-09T22:46:45.218Z,101741.66
2022-10-09T22:49:15.486Z,101738.47
2022-10-09T22:51:44.438Z,101741.41
2022-10-09T22:54:13.255Z,101749.22
2022-10-09T22:56:44.449Z,101746.72
2022-10-09T22:59:16.293Z,101748.84
2022-10-09T23:01:53.621Z,101747.31
2022-10-09T23:04:22.389Z,101744.38
2022-10-09T23:06:53.129Z,101754.88
2022-10-09T23:09:22.504Z,101746.47
2022-10-09T23:11:50.571Z,101746.47
2022-10-09T23:14:18.599Z,101744.53
2022-10-09T23:16:46.356Z,101741.72
2022-10-09T23:19:15.262Z,101739.91
2022-10-09T23:21:45.490Z,101738.38
2022-10-09T23:24:17.616Z,101734.47
2022-10-09T23:26:46.929Z,101726.91
2022-10-09T23:29:17.691Z,101727.06
2022-10-09T23:31:45.996Z,101727.91
2022-10-09T23:34:13.725Z,101726.91
2022-10-09T23:36:41.519Z,101723.44
2022-10-09T23:39:09.317Z,101717.56
2022-10-09T23:41:38.163Z,101725.53
2022-10-09T23:44:05.908Z,101729.31
2022-10-09T23:46:34.131Z,101728.59
2022-10-09T23:49:02.010Z,101722.75
2022-10-09T23:51:30.291Z,101720.91
2022-10-09T23:53:59.014Z,101721.91
2022-10-09T23:56:32.176Z,101716.88
2022-10-09T23:59:02.086Z,101713.69
